Time;durP1;ratioP1;P1;durP2;ratioP2;P2;SDS_P1;SDS_P2;PMS_P1;PMS_P2;Temp;Humidity;BMP_temperature;BMP_pressure;BME280_temperature;BME280_humidity;BME280_pressure;Samples;Min_cycle;Max_cycle;Signal;HPM_P1;HPM_P2
2024/02/11 00:00:34;;;;;;;37.20;26.30;;;;;;;9.88;100.00;97759.86;180358;1256;44841;-61
2024/02/11 00:04:57;;;;;;;38.80;24.60;;;;;;;9.89;100.00;97759.76;180658;1255;45191;-62
2024/02/11 00:09:04;;;;;;;42.90;26.70;;;;;;;9.91;100.00;97755.61;180616;1256;45911;-62
2024/02/11 00:13:10;;;;;;;41.50;26.80;;;;;;;9.91;100.00;97754.47;180426;1256;57610;-63
2024/02/11 00:17:15;;;;;;;38.80;27.80;;;;;;;9.94;100.00;97753.65;180408;1255;44377;-61
2024/02/11 00:21:18;;;;;;;42.30;26.20;;;;;;;9.97;100.00;97750.35;180239;1256;45097;-61
2024/02/11 00:25:24;;;;;;;42.30;26.80;;;;;;;10.00;100.00;97746.36;180504;1256;45901;-61
2024/02/11 00:29:27;;;;;;;42.90;26.00;;;;;;;9.96;100.00;97744.53;180414;1259;45008;-61
2024/02/11 00:33:39;;;;;;;41.20;27.70;;;;;;;9.92;100.00;97738.96;180348;1255;59481;-61
2024/02/11 00:37:44;;;;;;;48.30;27.70;;;;;;;9.94;100.00;97740.66;180397;1256;45977;-61
2024/02/11 00:42:40;;;;;;;41.60;27.20;;;;;;;9.98;100.00;97737.90;180551;1255;45100;-62
2024/02/11 00:46:46;;;;;;;41.50;26.30;;;;;;;10.01;100.00;97739.84;180419;1256;44752;-62
2024/02/11 00:50:51;;;;;;;39.40;25.90;;;;;;;10.01;100.00;97740.52;180539;1254;45866;-61
2024/02/11 00:54:55;;;;;;;52.80;29.10;;;;;;;9.99;100.00;97741.66;180410;1253;58429;-61
2024/02/11 00:58:59;;;;;;;45.50;30.30;;;;;;;9.98;100.00;97744.95;180730;1253;46182;-61
2024/02/11 01:03:05;;;;;;;43.60;27.30;;;;;;;10.01;100.00;97740.38;180544;1254;45913;-61
2024/02/11 01:07:15;;;;;;;48.60;27.60;;;;;;;9.97;100.00;97737.68;180775;1254;46044;-61
2024/02/11 01:11:19;;;;;;;53.30;29.30;;;;;;;9.91;100.00;97741.08;180648;1253;43583;-61
2024/02/11 01:15:26;;;;;;;48.00;28.10;;;;;;;9.83;100.00;97738.54;180580;1253;59897;-61
2024/02/11 01:19:36;;;;;;;39.40;27.20;;;;;;;9.81;100.00;97737.79;180687;1254;44756;-61
2024/02/11 01:23:40;;;;;;;46.80;27.70;;;;;;;9.81;100.00;97734.41;180565;1254;44979;-61
2024/02/11 01:27:51;;;;;;;44.20;25.90;;;;;;;9.81;100.00;97733.75;180458;1257;45024;-61
2024/02/11 01:31:54;;;;;;;46.20;24.60;;;;;;;9.81;100.00;97735.14;180549;1253;45965;-61
2024/02/11 01:35:57;;;;;;;48.30;27.10;;;;;;;9.82;100.00;97734.09;180662;1253;59479;-61
2024/02/11 01:40:08;;;;;;;40.30;26.10;;;;;;;9.83;100.00;97731.99;180778;1254;44173;-61
2024/02/11 01:44:15;;;;;;;53.80;29.40;;;;;;;9.89;100.00;97733.78;180911;1253;43630;-62
2024/02/11 01:48:18;;;;;;;44.00;23.70;;;;;;;9.96;100.00;97731.21;180837;1254;45963;-61
2024/02/11 01:52:22;;;;;;;39.00;24.40;;;;;;;9.98;100.00;97729.68;180732;1254;44709;-61
2024/02/11 01:56:26;;;;;;;40.20;24.20;;;;;;;10.01;100.00;97732.39;180693;1254;58434;-61
2024/02/11 02:00:31;;;;;;;37.60;23.40;;;;;;;10.03;100.00;97723.69;180735;1254;45947;-61
2024/02/11 02:04:36;;;;;;;34.60;23.40;;;;;;;10.06;100.00;97721.50;180744;1254;45959;-61
2024/02/11 02:08:43;;;;;;;37.70;22.50;;;;;;;10.10;100.00;97721.26;180664;1253;44879;-61
2024/02/11 02:12:46;;;;;;;45.40;22.80;;;;;;;10.15;100.00;97722.22;180773;1254;43857;-62
2024/02/11 02:16:50;;;;;;;34.50;22.80;;;;;;;10.16;100.00;97723.66;180586;1258;57918;-61
2024/02/11 02:20:53;;;;;;;26.70;20.40;;;;;;;10.10;100.00;97720.85;180559;1254;46038;-61
2024/02/11 02:24:59;;;;;;;38.10;22.40;;;;;;;10.04;100.00;97714.31;180645;1255;43784;-62
2024/02/11 02:29:02;;;;;;;34.20;23.20;;;;;;;9.98;100.00;97713.42;180499;1254;44035;-61
2024/02/11 02:33:10;;;;;;;46.90;29.30;;;;;;;9.97;100.00;97715.52;180665;1254;43686;-62
2024/02/11 02:37:14;;;;;;;39.80;23.70;;;;;;;10.01;100.00;97711.66;180683;1254;58373;-61
2024/02/11 02:41:19;;;;;;;45.50;28.60;;;;;;;10.04;100.00;97707.02;180776;1254;45894;-61
2024/02/11 02:45:23;;;;;;;41.70;21.50;;;;;;;10.09;100.00;97702.08;180511;1254;43872;-61
2024/02/11 02:49:26;;;;;;;49.50;26.10;;;;;;;10.13;100.00;97702.95;180803;1253;44913;-62
2024/02/11 02:53:30;;;;;;;40.40;26.40;;;;;;;10.18;100.00;97697.85;180862;1253;44991;-62
2024/02/11 02:57:36;;;;;;;41.40;20.10;;;;;;;10.25;100.00;97698.14;180975;1253;58892;-62
2024/02/11 03:01:39;;;;;;;32.30;17.70;;;;;;;10.28;100.00;97693.19;180453;1254;45928;-62
2024/02/11 03:05:44;;;;;;;28.00;16.50;;;;;;;10.29;100.00;97690.27;180573;1254;45974;-62
2024/02/11 03:09:47;;;;;;;33.10;17.70;;;;;;;10.29;100.00;97690.58;180656;1253;46114;-62
2024/02/11 03:13:51;;;;;;;29.10;16.50;;;;;;;10.23;100.00;97690.96;180546;1253;45955;-62
2024/02/11 03:17:54;;;;;;;31.50;19.80;;;;;;;10.15;100.00;97691.80;180687;1254;58529;-62
2024/02/11 03:21:58;;;;;;;25.60;17.50;;;;;;;10.09;100.00;97688.88;180609;1253;45967;-62
2024/02/11 03:26:01;;;;;;;42.50;17.90;;;;;;;10.10;100.00;97693.91;180543;1253;45444;-62
2024/02/11 03:30:07;;;;;;;35.50;19.10;;;;;;;10.06;100.00;97685.88;180768;1253;45963;-62
2024/02/11 03:34:11;;;;;;;39.10;18.70;;;;;;;10.08;100.00;97689.20;180564;1255;45887;-62
2024/02/11 03:38:18;;;;;;;35.10;17.50;;;;;;;10.11;100.00;97688.91;180476;1254;59454;-62
2024/02/11 03:42:22;;;;;;;27.30;15.80;;;;;;;10.10;100.00;97686.27;180533;1253;45913;-62
2024/02/11 03:46:54;;;;;;;38.00;18.50;;;;;;;10.09;100.00;97685.17;180627;1253;43599;-62
2024/02/11 03:51:00;;;;;;;39.10;16.10;;;;;;;10.08;100.00;97678.58;180356;1254;46207;-62
2024/02/11 03:55:08;;;;;;;31.40;16.90;;;;;;;10.12;100.00;97679.72;180550;1254;44646;-62
2024/02/11 03:59:13;;;;;;;25.80;14.70;;;;;;;10.10;100.00;97678.64;180465;1254;58411;-62
2024/02/11 04:03:17;;;;;;;37.60;15.70;;;;;;;10.12;100.00;97674.94;180616;1254;45165;-62
2024/02/11 04:07:25;;;;;;;37.50;15.30;;;;;;;10.12;100.00;97671.77;180579;1254;45032;-62
2024/02/11 04:11:32;;;;;;;43.30;15.10;;;;;;;10.13;100.00;97668.59;180565;1253;44052;-62
2024/02/11 04:15:39;;;;;;;26.50;13.70;;;;;;;10.13;100.00;97666.29;180526;1254;45052;-62
2024/02/11 04:19:44;;;;;;;25.70;14.40;;;;;;;10.13;100.00;97665.08;180468;1253;58328;-62
2024/02/11 04:23:48;;;;;;;24.20;12.30;;;;;;;10.13;100.00;97660.08;180666;1253;46014;-62
2024/02/11 04:27:54;;;;;;;25.20;14.10;;;;;;;10.19;100.00;97655.48;180721;1253;45894;-62
2024/02/11 04:32:00;;;;;;;19.80;12.40;;;;;;;10.25;100.00;97653.52;180669;1254;46021;-62
2024/02/11 04:36:14;;;;;;;28.70;13.00;;;;;;;10.29;100.00;97649.00;181005;1254;46060;-62
2024/02/11 04:40:18;;;;;;;22.50;13.20;;;;;;;10.33;100.00;97649.94;180791;1254;59129;-62
2024/02/11 04:44:26;;;;;;;27.60;11.30;;;;;;;10.33;100.00;97645.45;180584;1254;45139;-62
2024/02/11 04:48:34;;;;;;;24.70;11.70;;;;;;;10.33;100.00;97643.12;180505;1257;43661;-62
2024/02/11 04:52:40;;;;;;;19.10;11.20;;;;;;;10.34;100.00;97639.77;180582;1254;45195;-62
2024/02/11 04:56:48;;;;;;;30.30;13.20;;;;;;;10.35;100.00;97634.95;180758;1254;43649;-62
2024/02/11 05:00:53;;;;;;;30.80;13.50;;;;;;;10.34;100.00;97638.63;180536;1253;59940;-62
2024/02/11 05:04:59;;;;;;;21.10;10.90;;;;;;;10.34;100.00;97636.30;180577;1254;46083;-62
2024/02/11 05:09:08;;;;;;;32.00;10.70;;;;;;;10.37;100.00;97634.85;180782;1253;43763;-62
2024/02/11 05:13:16;;;;;;;15.60;9.50;;;;;;;10.40;100.00;97633.77;180451;1254;46082;-62
2024/02/11 05:17:19;;;;;;;21.60;10.70;;;;;;;10.42;100.00;97628.07;180519;1254;44177;-62
2024/02/11 05:21:24;;;;;;;15.50;9.80;;;;;;;10.48;100.00;97616.10;180496;1255;59032;-62
2024/02/11 05:25:32;;;;;;;17.00;9.00;;;;;;;10.52;100.00;97615.85;180663;1253;43824;-62
2024/02/11 05:29:37;;;;;;;17.30;9.00;;;;;;;10.57;100.00;97617.00;180639;1254;45906;-62
2024/02/11 05:33:41;;;;;;;17.30;7.90;;;;;;;10.55;100.00;97616.04;180684;1254;45845;-62
2024/02/11 05:37:46;;;;;;;12.80;7.20;;;;;;;10.58;100.00;97617.08;180605;1254;45941;-62
2024/02/11 05:42:19;;;;;;;14.40;6.90;;;;;;;10.64;100.00;97616.40;180665;1257;58938;-61
2024/02/11 05:46:22;;;;;;;7.80;6.10;;;;;;;10.63;100.00;97616.31;180767;1253;46198;-62
2024/02/11 05:50:27;;;;;;;19.80;8.10;;;;;;;10.67;100.00;97615.80;180584;1254;45965;-62
2024/02/11 05:54:31;;;;;;;14.30;6.60;;;;;;;10.65;100.00;97611.83;180818;1254;43994;-61
2024/02/11 05:58:34;;;;;;;8.40;5.50;;;;;;;10.66;100.00;97612.54;180636;1254;45197;-61
2024/02/11 06:03:03;;;;;;;16.20;5.50;;;;;;;10.66;100.00;97613.64;180569;1253;58509;-61
2024/02/11 06:07:11;;;;;;;5.30;4.20;;;;;;;10.69;100.00;97609.36;180753;1254;44673;-61
2024/02/11 06:11:15;;;;;;;10.20;4.90;;;;;;;10.68;100.00;97610.91;180638;1254;43792;-61
2024/02/11 06:15:24;;;;;;;10.60;4.90;;;;;;;10.72;100.00;97612.78;180762;1254;46108;-61
2024/02/11 06:19:29;;;;;;;12.90;4.10;;;;;;;10.74;100.00;97616.47;180986;1253;46054;-61
2024/02/11 06:23:34;;;;;;;10.70;4.00;;;;;;;10.79;100.00;97616.87;180754;1253;57699;-61
2024/02/11 06:27:44;;;;;;;6.60;4.10;;;;;;;10.79;100.00;97621.49;180901;1254;43806;-61
2024/02/11 06:32:18;;;;;;;5.70;3.20;;;;;;;10.79;100.00;97621.38;180685;1253;45917;-61
2024/02/11 06:36:26;;;;;;;8.40;4.40;;;;;;;10.80;100.00;97625.20;180750;1253;43630;-61
2024/02/11 06:40:31;;;;;;;4.60;4.00;;;;;;;10.78;100.00;97628.69;180673;1254;45054;-61
2024/02/11 06:49:10;;;;;;;11.80;5.30;;;;;;;10.82;100.00;97626.93;165044;1253;89243;-62
2024/02/11 06:53:14;;;;;;;12.90;6.70;;;;;;;10.82;100.00;97628.13;180641;1257;46096;-61
2024/02/11 06:57:17;;;;;;;21.70;6.90;;;;;;;10.84;100.00;97631.61;180553;1256;43673;-61
2024/02/11 07:01:23;;;;;;;15.90;8.00;;;;;;;10.85;100.00;97629.73;180431;1257;45033;-61
2024/02/11 07:05:27;;;;;;;17.20;8.20;;;;;;;10.87;100.00;97630.61;180427;1257;57813;-61
2024/02/11 07:09:31;;;;;;;14.90;7.50;;;;;;;10.91;100.00;97632.03;180516;1256;46207;-61
2024/02/11 07:13:35;;;;;;;20.30;10.20;;;;;;;10.89;100.00;97633.02;180405;1256;45991;-61
2024/02/11 07:17:44;;;;;;;17.50;8.40;;;;;;;10.89;100.00;97631.73;180304;1257;45913;-61
2024/02/11 07:21:48;;;;;;;12.60;8.80;;;;;;;10.90;100.00;97633.61;180244;1260;43746;-61
2024/02/11 07:25:52;;;;;;;16.10;9.60;;;;;;;10.91;100.00;97635.63;180381;1256;60064;-62
2024/02/11 07:29:56;;;;;;;17.60;8.80;;;;;;;10.90;100.00;97634.56;180276;1256;44659;-60
2024/02/11 07:34:01;;;;;;;22.40;11.60;;;;;;;10.90;100.00;97629.36;180451;1256;45849;-61
2024/02/11 07:38:05;;;;;;;18.80;9.30;;;;;;;10.89;100.00;97625.91;180468;1256;45547;-61
2024/02/11 07:42:10;;;;;;;14.10;9.00;;;;;;;10.89;100.00;97623.42;180304;1257;44979;-61
2024/02/11 07:46:14;;;;;;;18.30;9.40;;;;;;;10.86;100.00;97626.76;180434;1257;58917;-62
2024/02/11 07:50:26;;;;;;;17.50;11.00;;;;;;;10.87;100.00;97628.45;180563;1257;43609;-61
2024/02/11 07:54:31;;;;;;;22.20;14.50;;;;;;;10.86;100.00;97631.79;180619;1257;43639;-62
2024/02/11 07:58:34;;;;;;;26.20;14.60;;;;;;;10.86;100.00;97629.79;180504;1256;44982;-61
2024/02/11 08:02:42;;;;;;;20.60;12.10;;;;;;;10.86;100.00;97627.98;180595;1256;43497;-62
2024/02/11 08:11:29;;;;;;;18.90;13.60;;;;;;;10.86;100.00;97631.88;177358;1259;44007;-61
2024/02/11 08:20:55;;;;;;;16.60;10.30;;;;;;;10.90;100.00;97633.58;143582;1284;43630;-62
2024/02/11 08:47:56;;;;;;;21.40;17.50;;;;;;;10.98;100.00;97627.33;181131;1264;43394;-64
2024/02/11 08:51:59;;;;;;;92.30;62.20;;;;;;;10.99;100.00;97624.23;181156;1264;43807;-62
2024/02/11 08:56:31;;;;;;;38.40;34.40;;;;;;;11.05;100.00;97622.88;181171;1264;58035;-62
2024/02/11 09:00:34;;;;;;;21.30;15.60;;;;;;;11.05;100.00;97619.08;181181;1264;43396;-62
2024/02/11 09:05:29;;;;;;;16.20;12.70;;;;;;;11.09;100.00;97614.83;181244;1263;43865;-61
2024/02/11 09:09:33;;;;;;;15.50;10.80;;;;;;;11.13;100.00;97612.53;181140;1264;43043;-62
2024/02/11 09:13:37;;;;;;;18.80;12.10;;;;;;;11.18;100.00;97612.88;181190;1264;43399;-61
2024/02/11 09:17:43;;;;;;;19.20;15.30;;;;;;;11.20;100.00;97614.71;181120;1264;58037;-62
2024/02/11 09:26:39;;;;;;;13.60;11.10;;;;;;;11.27;100.00;97611.14;165712;1262;92572;-62
2024/02/11 09:30:43;;;;;;;23.00;12.90;;;;;;;11.28;100.00;97604.89;181327;1262;43777;-62
2024/02/11 09:34:50;;;;;;;14.80;13.10;;;;;;;11.35;100.00;97603.61;181196;1263;42984;-62
2024/02/11 09:38:53;;;;;;;17.90;13.10;;;;;;;11.34;100.00;97602.50;181244;1263;58642;-62
2024/02/11 09:43:01;;;;;;;21.30;15.60;;;;;;;11.34;100.00;97600.58;181281;1263;43822;-62
2024/02/11 09:47:33;;;;;;;19.50;14.60;;;;;;;11.28;100.00;97604.84;181245;1263;43417;-62
2024/02/11 09:51:36;;;;;;;22.50;15.90;;;;;;;11.29;100.00;97601.61;181259;1263;43486;-63
2024/02/11 09:55:42;;;;;;;18.60;13.30;;;;;;;11.31;100.00;97600.77;181214;1262;44113;-62
2024/02/11 09:59:46;;;;;;;16.90;11.80;;;;;;;11.31;100.00;97604.90;181279;1263;58142;-62
2024/02/11 10:03:54;;;;;;;18.50;13.30;;;;;;;11.31;100.00;97603.38;181179;1264;43796;-62
2024/02/11 10:08:13;;;;;;;19.30;13.20;;;;;;;11.33;100.00;97603.35;181300;1263;43001;-62
2024/02/11 10:12:21;;;;;;;22.90;13.80;;;;;;;11.31;100.00;97599.33;181223;1263;43111;-63
2024/02/11 10:16:27;;;;;;;17.20;13.20;;;;;;;11.31;100.00;97596.63;181105;1264;43416;-64
2024/02/11 10:20:30;;;;;;;31.20;17.50;;;;;;;11.33;100.00;97594.14;181129;1263;58078;-64
2024/02/11 10:24:34;;;;;;;15.70;12.60;;;;;;;11.33;100.00;97592.30;181154;1263;43445;-63
2024/02/11 10:28:39;;;;;;;18.50;13.80;;;;;;;11.34;100.00;97592.89;181089;1264;43195;-63
2024/02/11 10:32:42;;;;;;;18.90;13.40;;;;;;;11.35;100.00;97588.21;181222;1263;44101;-63
2024/02/11 10:36:48;;;;;;;24.70;16.10;;;;;;;11.33;100.00;97585.21;181176;1264;43019;-62
2024/02/11 10:41:06;;;;;;;;;;;;;;;11.34;100.00;97584.48;181172;1263;58692;-63
2024/02/11 10:45:12;;;;;;;33.20;16.80;;;;;;;11.32;100.00;97585.05;181211;1263;43093;-63
2024/02/11 10:49:16;;;;;;;32.60;21.40;;;;;;;11.31;100.00;97580.14;181119;1262;43672;-63
2024/02/11 10:53:23;;;;;;;64.60;40.40;;;;;;;11.32;100.00;97579.73;181306;1261;43724;-63
2024/02/11 10:57:30;;;;;;;61.20;42.70;;;;;;;11.29;100.00;97574.88;181153;1263;43068;-63
2024/02/11 11:01:39;;;;;;;66.50;42.90;;;;;;;11.32;100.00;97572.06;181181;1265;57753;-62
2024/02/11 11:05:43;;;;;;;49.80;31.90;;;;;;;11.32;100.00;97569.41;181163;1263;43066;-62
2024/02/11 11:09:53;;;;;;;34.30;25.30;;;;;;;11.32;100.00;97570.35;181232;1263;43715;-62
2024/02/11 11:14:07;;;;;;;21.40;17.00;;;;;;;11.30;100.00;97565.05;181194;1263;43713;-62
2024/02/11 11:44:21;;;;;;;24.00;15.80;;;;;;;11.41;100.00;97567.13;181082;1265;43730;-60
2024/02/11 11:48:24;;;;;;;;;;;;;;;11.42;100.00;97565.48;181061;1264;59472;-59
2024/02/11 11:52:29;;;;;;;18.70;14.50;;;;;;;11.43;100.00;97565.54;181149;1264;43387;-60
2024/02/11 11:56:32;;;;;;;20.70;14.00;;;;;;;11.44;100.00;97564.67;181100;1264;43032;-60
2024/02/11 12:00:35;;;;;;;22.30;12.30;;;;;;;11.49;100.00;97560.48;180971;1265;43391;-60
2024/02/11 12:04:40;;;;;;;17.30;13.40;;;;;;;11.55;100.00;97562.21;181009;1265;43024;-61
2024/02/11 12:08:44;;;;;;;20.20;16.80;;;;;;;11.60;100.00;97553.80;181116;1264;57107;-62
2024/02/11 12:12:48;;;;;;;21.60;13.10;;;;;;;11.64;100.00;97557.30;181123;1264;44389;-61
2024/02/11 12:16:51;;;;;;;15.20;11.60;;;;;;;11.70;100.00;97550.10;181122;1264;43642;-61
2024/02/11 12:20:55;;;;;;;18.40;12.30;;;;;;;11.71;100.00;97542.70;181048;1265;43704;-62
2024/02/11 12:25:03;;;;;;;14.70;11.40;;;;;;;11.73;100.00;97538.55;181073;1264;43714;-61
2024/02/11 12:29:06;;;;;;;17.80;13.80;;;;;;;11.78;100.00;97539.55;181077;1265;58323;-62
2024/02/11 12:33:11;;;;;;;15.20;11.20;;;;;;;11.83;100.00;97537.67;181087;1264;43030;-61
2024/02/11 12:37:17;;;;;;;19.40;13.40;;;;;;;11.82;100.00;97538.50;181179;1264;43059;-61
2024/02/11 12:41:24;;;;;;;;;;;;;;;11.84;100.00;97534.77;181133;1265;43163;-61
2024/02/11 12:45:28;;;;;;;30.20;20.40;;;;;;;11.85;100.00;97536.83;181007;1266;43522;-61
2024/02/11 12:49:40;;;;;;;25.20;16.50;;;;;;;11.82;100.00;97535.42;181099;1264;58019;-61
2024/02/11 12:53:49;;;;;;;19.20;12.90;;;;;;;11.82;100.00;97536.61;180826;1265;239445;-61
2024/02/11 12:57:53;;;;;;;23.20;14.70;;;;;;;11.70;100.00;97534.16;181012;1266;43016;-61
2024/02/11 13:01:57;;;;;;;20.30;14.50;;;;;;;11.69;100.00;97529.13;180990;1266;43697;-61
2024/02/11 13:06:01;;;;;;;23.70;16.30;;;;;;;11.78;100.00;97529.52;181015;1266;43624;-62
2024/02/11 13:10:06;;;;;;;24.10;16.50;;;;;;;11.76;100.00;97527.29;180993;1267;58062;-61
2024/02/11 13:14:09;;;;;;;27.50;16.90;;;;;;;11.80;100.00;97529.52;180988;1267;43254;-61
2024/02/11 13:18:14;;;;;;;32.80;21.90;;;;;;;11.84;100.00;97526.33;181048;1265;43214;-61
2024/02/11 13:22:20;;;;;;;20.30;16.80;;;;;;;11.86;100.00;97524.83;180985;1267;43149;-61
2024/02/11 13:30:40;;;;;;;21.20;17.00;;;;;;;11.92;100.00;97527.63;171820;1267;57917;-61
2024/02/11 13:34:45;;;;;;;24.40;17.30;;;;;;;11.94;100.00;97528.11;180966;1267;44220;-61
2024/02/11 13:38:48;;;;;;;19.10;13.50;;;;;;;11.96;100.00;97529.19;180948;1267;43114;-61
2024/02/11 13:42:54;;;;;;;19.20;15.20;;;;;;;11.95;100.00;97528.08;180951;1267;43466;-61
2024/02/11 13:46:57;;;;;;;21.80;17.60;;;;;;;12.03;100.00;97527.95;180870;1267;43062;-61
2024/02/11 13:51:51;;;;;;;23.90;16.70;;;;;;;12.08;100.00;97529.64;180922;1266;58471;-61
2024/02/11 13:55:56;;;;;;;18.90;14.30;;;;;;;12.10;100.00;97528.98;180956;1267;43660;-60
2024/02/11 13:59:59;;;;;;;20.90;15.20;;;;;;;12.04;100.00;97532.13;180888;1268;43318;-61
2024/02/11 14:04:09;;;;;;;21.00;14.00;;;;;;;12.00;100.00;97527.39;180882;1267;43140;-61
2024/02/11 14:08:12;;;;;;;22.70;16.10;;;;;;;11.99;100.00;97529.00;180932;1267;43187;-61
2024/02/11 14:12:16;;;;;;;17.60;14.20;;;;;;;12.01;100.00;97529.29;180909;1267;59717;-62
2024/02/11 14:16:22;;;;;;;15.80;13.20;;;;;;;11.99;100.00;97528.95;180935;1267;43143;-62
2024/02/11 14:20:26;;;;;;;14.50;12.70;;;;;;;11.93;100.00;97526.96;180985;1267;43027;-61
2024/02/11 14:24:32;;;;;;;22.90;15.40;;;;;;;11.86;100.00;97533.76;180865;1267;43185;-61
2024/02/11 14:28:36;;;;;;;20.60;14.10;;;;;;;11.77;100.00;97532.34;180884;1267;43726;-60
2024/02/11 14:32:39;;;;;;;25.80;18.90;;;;;;;11.77;100.00;97535.70;180890;1267;58537;-60
2024/02/11 14:36:42;;;;;;;40.50;25.20;;;;;;;11.78;100.00;97535.95;180912;1267;43094;-62
2024/02/11 14:40:49;;;;;;;27.80;17.60;;;;;;;11.76;100.00;97536.84;180882;1267;43114;-62
2024/02/11 14:44:52;;;;;;;23.60;18.10;;;;;;;11.78;100.00;97541.14;180792;1267;43754;-62
2024/02/11 14:49:00;;;;;;;25.50;18.30;;;;;;;11.70;100.00;97543.09;180870;1267;43077;-62
2024/02/11 14:53:05;;;;;;;19.50;14.60;;;;;;;11.69;100.00;97546.70;180888;1267;58063;-61
2024/02/11 14:57:24;;;;;;;23.30;15.80;;;;;;;11.74;100.00;97552.31;180961;1267;43792;-60
2024/02/11 15:01:29;;;;;;;19.50;16.60;;;;;;;11.72;100.00;97552.89;180934;1267;43462;-61
2024/02/11 15:05:32;;;;;;;25.50;16.90;;;;;;;11.78;100.00;97554.34;180855;1267;43964;-61
2024/02/11 15:09:36;;;;;;;20.50;18.10;;;;;;;11.80;100.00;97555.41;180901;1267;43817;-63
2024/02/11 15:13:49;;;;;;;20.40;15.90;;;;;;;11.77;100.00;97553.14;181004;1267;58155;-61
2024/02/11 15:17:53;;;;;;;25.30;15.50;;;;;;;11.69;100.00;97558.41;180980;1267;43152;-61
2024/02/11 15:21:56;;;;;;;17.40;13.80;;;;;;;11.75;100.00;97560.14;180938;1267;43135;-61
2024/02/11 15:26:49;;;;;;;20.30;15.40;;;;;;;11.66;100.00;97560.08;180948;1267;43178;-62
2024/02/11 15:30:53;;;;;;;22.90;19.40;;;;;;;11.60;100.00;97567.23;180963;1267;43164;-61
2024/02/11 15:35:04;;;;;;;26.90;21.50;;;;;;;11.55;100.00;97571.52;180856;1267;58335;-60
2024/02/11 15:39:08;;;;;;;26.60;19.20;;;;;;;11.52;100.00;97575.48;180962;1267;43750;-61
2024/02/11 15:43:13;;;;;;;29.10;21.20;;;;;;;11.47;100.00;97580.58;180975;1267;43667;-61
2024/02/11 15:47:18;;;;;;;27.50;22.30;;;;;;;11.46;100.00;97581.47;180958;1270;43779;-62
2024/02/11 15:51:21;;;;;;;29.20;20.60;;;;;;;11.47;100.00;97583.48;180942;1267;43686;-62
2024/02/11 15:55:25;;;;;;;28.40;21.00;;;;;;;11.46;100.00;97584.09;180930;1268;59649;-61
2024/02/11 16:04:20;;;;;;;33.40;23.00;;;;;;;11.47;100.00;97595.12;180091;1266;43158;-62
2024/02/11 16:08:24;;;;;;;35.30;23.40;;;;;;;11.49;100.00;97599.21;181038;1267;43119;-62
2024/02/11 16:12:28;;;;;;;85.60;45.40;;;;;;;11.49;100.00;97603.56;181014;1267;43758;-62
2024/02/11 16:16:33;;;;;;;114.30;66.50;;;;;;;11.52;100.00;97604.80;181082;1267;58037;-62
2024/02/11 16:20:37;;;;;;;55.90;34.50;;;;;;;11.52;100.00;97609.59;181035;1267;43798;-62
2024/02/11 16:24:40;;;;;;;81.40;49.40;;;;;;;11.47;100.00;97611.45;181032;1266;43061;-62
2024/02/11 16:28:44;;;;;;;151.10;103.00;;;;;;;11.47;100.00;97612.89;181016;1266;43684;-62
2024/02/11 16:32:47;;;;;;;92.60;60.80;;;;;;;11.44;100.00;97616.63;181018;1266;43847;-62
2024/02/11 16:36:51;;;;;;;38.20;25.60;;;;;;;11.40;100.00;97621.29;180978;1268;60119;-62
2024/02/11 16:40:56;;;;;;;23.90;18.30;;;;;;;11.43;100.00;97625.89;180992;1268;43431;-62
2024/02/11 16:45:00;;;;;;;20.50;14.90;;;;;;;11.39;100.00;97630.94;181059;1266;43711;-62
2024/02/11 16:49:06;;;;;;;22.30;15.80;;;;;;;11.40;100.00;97638.11;181008;1266;43178;-62
2024/02/11 16:53:09;;;;;;;19.70;15.80;;;;;;;11.43;100.00;97642.85;181072;1266;43068;-62
2024/02/11 16:57:15;;;;;;;20.30;15.90;;;;;;;11.46;100.00;97645.19;181011;1265;58323;-63
2024/02/11 17:01:18;;;;;;;21.90;17.90;;;;;;;11.51;100.00;97656.02;181060;1266;43137;-63
2024/02/11 17:05:22;;;;;;;41.80;25.80;;;;;;;11.56;100.00;97660.89;181065;1265;43032;-63
2024/02/11 17:09:31;;;;;;;34.80;23.70;;;;;;;11.58;100.00;97663.52;180979;1265;44065;-62
2024/02/11 17:13:34;;;;;;;45.00;32.30;;;;;;;11.57;100.00;97663.63;181084;1265;43924;-63
2024/02/11 17:17:38;;;;;;;49.50;34.40;;;;;;;11.52;100.00;97667.30;181020;1267;58341;-63
2024/02/11 17:21:41;;;;;;;35.60;25.10;;;;;;;11.48;100.00;97672.05;181002;1266;43862;-62
2024/02/11 17:25:45;;;;;;;32.80;23.00;;;;;;;11.49;100.00;97675.35;181013;1265;43069;-63
2024/02/11 17:29:48;;;;;;;33.90;24.60;;;;;;;11.53;100.00;97675.52;180961;1267;43420;-63
2024/02/11 17:33:51;;;;;;;39.70;30.80;;;;;;;11.58;100.00;97680.56;181088;1265;43690;-63
2024/02/11 17:37:55;;;;;;;41.40;28.70;;;;;;;11.64;100.00;97681.41;181081;1264;58084;-63
2024/02/11 17:41:59;;;;;;;42.90;29.50;;;;;;;11.70;100.00;97685.57;180998;1265;43152;-63
2024/02/11 17:46:04;;;;;;;41.60;28.80;;;;;;;11.76;100.00;97688.17;181064;1268;43102;-64
2024/02/11 17:50:11;;;;;;;34.20;26.80;;;;;;;11.81;100.00;97691.54;181027;1265;43362;-65
2024/02/11 17:54:16;;;;;;;31.90;24.50;;;;;;;11.80;100.00;97695.30;181025;1267;43703;-64
2024/02/11 17:58:19;;;;;;;46.50;30.80;;;;;;;11.79;100.00;97701.52;181097;1267;58378;-65
2024/02/11 18:02:22;;;;;;;34.00;25.10;;;;;;;11.80;100.00;97707.27;181034;1265;44010;-64
2024/02/11 18:06:30;;;;;;;28.30;19.30;;;;;;;11.69;100.00;97719.95;181054;1266;43773;-63
2024/02/11 18:10:36;;;;;;;23.70;16.00;;;;;;;11.61;100.00;97726.45;180985;1269;43126;-62
2024/02/11 18:14:40;;;;;;;15.50;13.40;;;;;;;11.55;100.00;97733.42;180920;1267;43061;-63
2024/02/11 18:18:48;;;;;;;20.40;14.70;;;;;;;11.53;100.00;97731.44;181054;1266;57563;-63
2024/02/11 18:22:51;;;;;;;23.20;15.70;;;;;;;11.56;100.00;97736.82;181028;1267;43752;-63
2024/02/11 18:26:56;;;;;;;18.30;12.60;;;;;;;11.60;100.00;97740.17;180954;1268;43472;-63
2024/02/11 18:31:00;;;;;;;16.10;12.60;;;;;;;11.54;100.00;97738.86;180941;1267;43229;-62
2024/02/11 18:35:10;;;;;;;18.90;12.90;;;;;;;11.53;100.00;97744.35;181015;1266;44140;-63
2024/02/11 18:39:15;;;;;;;14.50;11.30;;;;;;;11.51;100.00;97748.02;181062;1267;58016;-63
2024/02/11 18:43:18;;;;;;;16.70;13.50;;;;;;;11.51;100.00;97753.67;181090;1265;43923;-63
2024/02/11 18:47:23;;;;;;;15.80;12.60;;;;;;;11.50;100.00;97755.19;181059;1266;43136;-62
2024/02/11 18:51:30;;;;;;;14.20;11.80;;;;;;;11.51;100.00;97758.88;180962;1267;43693;-62
2024/02/11 18:55:33;;;;;;;18.60;11.90;;;;;;;11.48;100.00;97766.13;181025;1265;43089;-63
2024/02/11 18:59:37;;;;;;;19.90;13.40;;;;;;;11.48;100.00;97769.36;181046;1267;58208;-63
2024/02/11 19:03:41;;;;;;;19.80;12.80;;;;;;;11.49;100.00;97774.52;181032;1267;43130;-63
2024/02/11 19:07:45;;;;;;;21.70;14.50;;;;;;;11.50;100.00;97777.94;181004;1267;43065;-64
2024/02/11 19:11:49;;;;;;;20.10;13.20;;;;;;;11.45;100.00;97785.48;181014;1268;43985;-63
2024/02/11 19:15:55;;;;;;;15.70;13.70;;;;;;;11.38;100.00;97794.27;181002;1268;43092;-63
2024/02/11 19:19:59;;;;;;;20.00;13.40;;;;;;;11.31;100.00;97800.92;181007;1267;59570;-63
2024/02/11 19:24:02;;;;;;;21.40;15.00;;;;;;;11.22;100.00;97800.20;181017;1267;44008;-63
2024/02/11 19:28:07;;;;;;;21.10;13.90;;;;;;;11.16;100.00;97803.05;181115;1265;43899;-63
2024/02/11 19:32:10;;;;;;;20.30;14.70;;;;;;;11.12;100.00;97809.81;181071;1266;44250;-63
2024/02/11 19:36:18;;;;;;;17.20;13.30;;;;;;;11.08;100.00;97813.25;181076;1265;43725;-63
2024/02/11 19:40:23;;;;;;;22.60;16.30;;;;;;;11.07;100.00;97813.45;181051;1265;57571;-62
2024/02/11 19:44:29;;;;;;;20.90;17.00;;;;;;;11.02;100.00;97822.20;181068;1267;43765;-63
2024/02/11 19:48:35;;;;;;;25.10;17.90;;;;;;;11.03;100.00;97822.49;181058;1266;43772;-63